Time;durP1;ratioP1;P1;durP2;ratioP2;P2;SDS_P1;SDS_P2;PMS_P1;PMS_P2;Temp;Humidity;BMP_temperature;BMP_pressure;BME280_temperature;BME280_humidity;BME280_pressure;Samples;Min_cycle;Max_cycle;Signal;HPM_P1;HPM_P2
2022/11/07 00:02:21;;;;;;;21.00;2.70;;;;;;;;;;5032782;28;20200;-88
2022/11/07 00:04:48;;;;;;;20.60;3.00;;;;;;;;;;5026980;28;20198;-89
2022/11/07 00:07:17;;;;;;;17.47;3.03;;;;;;;;;;5014460;28;20220;-88
2022/11/07 00:09:44;;;;;;;19.00;3.03;;;;;;;;;;5014998;28;20231;-89
2022/11/07 00:12:11;;;;;;;16.40;3.10;;;;;;;;;;5025950;28;20254;-87
2022/11/07 00:14:39;;;;;;;23.23;3.70;;;;;;;;;;5035031;28;20212;-88
2022/11/07 00:17:10;;;;;;;17.50;2.80;;;;;;;;;;5033726;28;20201;-89
2022/11/07 00:19:37;;;;;;;16.50;2.90;;;;;;;;;;5032276;28;20288;-88
2022/11/07 00:22:04;;;;;;;14.57;2.67;;;;;;;;;;5031370;28;20200;-89
2022/11/07 00:24:34;;;;;;;19.47;3.17;;;;;;;;;;5024333;28;20204;-89
2022/11/07 00:27:01;;;;;;;21.97;3.07;;;;;;;;;;5026184;28;20220;-88
2022/11/07 00:29:29;;;;;;;18.47;2.83;;;;;;;;;;5024091;28;20244;-88
2022/11/07 00:31:58;;;;;;;20.60;3.30;;;;;;;;;;5025570;28;20192;-88
2022/11/07 00:34:25;;;;;;;20.37;2.60;;;;;;;;;;5033750;28;20223;-88
2022/11/07 00:36:52;;;;;;;22.33;3.70;;;;;;;;;;5034468;28;20208;-88
2022/11/07 00:39:20;;;;;;;21.10;3.47;;;;;;;;;;5021595;28;20205;-89
2022/11/07 00:41:49;;;;;;;17.23;3.07;;;;;;;;;;5022253;28;20233;-88
2022/11/07 00:44:16;;;;;;;19.77;2.60;;;;;;;;;;5027296;28;20656;-89
2022/11/07 00:46:44;;;;;;;24.83;3.47;;;;;;;;;;5017202;28;20225;-89
2022/11/07 00:49:11;;;;;;;22.27;3.03;;;;;;;;;;5029777;28;20685;-88
2022/11/07 00:51:39;;;;;;;19.10;2.73;;;;;;;;;;5021726;28;20204;-88
2022/11/07 00:54:06;;;;;;;21.47;2.70;;;;;;;;;;5028155;28;20212;-88
2022/11/07 00:56:33;;;;;;;17.60;2.77;;;;;;;;;;5026880;28;20673;-88
2022/11/07 00:59:02;;;;;;;23.50;3.33;;;;;;;;;;5023043;28;20262;-88
2022/11/07 01:01:31;;;;;;;18.03;3.10;;;;;;;;;;5020750;28;20282;-88
2022/11/07 01:06:54;;;;;;;23.87;3.87;;;;;;;;;;4960822;28;20225;-88
2022/11/07 01:09:22;;;;;;;20.97;3.07;;;;;;;;;;4964983;28;20203;-89
2022/11/07 01:11:50;;;;;;;20.57;3.80;;;;;;;;;;4958997;28;20195;-88
2022/11/07 01:14:25;;;;;;;17.90;2.67;;;;;;;;;;4954374;28;20215;-88
2022/11/07 01:16:52;;;;;;;19.10;3.07;;;;;;;;;;4953924;28;20242;-89
2022/11/07 01:19:20;;;;;;;16.30;3.10;;;;;;;;;;4959810;28;20203;-89
2022/11/07 01:21:47;;;;;;;20.40;3.20;;;;;;;;;;4967204;28;20206;-89
2022/11/07 01:24:15;;;;;;;20.83;3.27;;;;;;;;;;4954605;28;20678;-88
2022/11/07 01:26:46;;;;;;;23.13;3.27;;;;;;;;;;4952920;28;20216;-89
2022/11/07 01:29:14;;;;;;;20.17;3.37;;;;;;;;;;4957921;28;20245;-87
2022/11/07 01:31:42;;;;;;;14.93;3.43;;;;;;;;;;4963374;28;20278;-88
2022/11/07 01:34:10;;;;;;;19.40;2.77;;;;;;;;;;4972019;28;20218;-88
2022/11/07 01:36:37;;;;;;;19.30;2.70;;;;;;;;;;4963772;28;20199;-88
2022/11/07 01:39:05;;;;;;;20.07;2.77;;;;;;;;;;4958183;28;20278;-87
2022/11/07 01:41:33;;;;;;;14.47;2.80;;;;;;;;;;5009184;28;20254;-88
2022/11/07 01:44:01;;;;;;;13.87;2.73;;;;;;;;;;5021136;28;20208;-88
2022/11/07 01:46:30;;;;;;;17.63;2.67;;;;;;;;;;5023676;28;20577;-87
2022/11/07 01:49:03;;;;;;;21.53;2.87;;;;;;;;;;5016000;28;20201;-88
2022/11/07 01:51:32;;;;;;;18.03;2.60;;;;;;;;;;5024490;28;20254;-88
2022/11/07 01:54:00;;;;;;;14.73;2.80;;;;;;;;;;5023827;28;20262;-88
2022/11/07 01:56:30;;;;;;;25.47;3.20;;;;;;;;;;5030200;28;20204;-87
2022/11/07 01:58:58;;;;;;;13.83;2.17;;;;;;;;;;5018455;28;20235;-88
2022/11/07 02:01:25;;;;;;;18.07;2.00;;;;;;;;;;5018482;28;20209;-88
2022/11/07 02:03:52;;;;;;;16.10;2.53;;;;;;;;;;5021110;28;20553;-88
2022/11/07 02:06:25;;;;;;;13.37;2.33;;;;;;;;;;5025483;28;20216;-88
2022/11/07 02:08:53;;;;;;;15.37;2.00;;;;;;;;;;5016297;28;20201;-88
2022/11/07 02:11:21;;;;;;;15.80;3.10;;;;;;;;;;5025457;28;20242;-88
2022/11/07 02:13:48;;;;;;;13.87;2.10;;;;;;;;;;5031333;28;20586;-88
2022/11/07 02:16:16;;;;;;;17.77;2.63;;;;;;;;;;5022153;28;20201;-88
2022/11/07 02:18:44;;;;;;;12.43;2.07;;;;;;;;;;5012446;28;20204;-89
2022/11/07 02:21:15;;;;;;;18.23;2.53;;;;;;;;;;5012600;28;20263;-88
2022/11/07 02:23:49;;;;;;;12.83;1.90;;;;;;;;;;5022602;28;20283;-89
2022/11/07 02:26:18;;;;;;;11.83;1.93;;;;;;;;;;5012183;28;20275;-89
2022/11/07 02:28:47;;;;;;;9.73;1.83;;;;;;;;;;5012380;28;20228;-88
2022/11/07 02:31:14;;;;;;;12.13;1.80;;;;;;;;;;5012496;28;20194;-88
2022/11/07 02:33:41;;;;;;;9.63;1.77;;;;;;;;;;5013293;28;20243;-89
2022/11/07 02:36:10;;;;;;;15.17;2.10;;;;;;;;;;5020089;28;20228;-88
2022/11/07 02:38:38;;;;;;;10.23;1.57;;;;;;;;;;5023636;28;20208;-88
2022/11/07 02:41:07;;;;;;;10.80;1.73;;;;;;;;;;5031422;28;20284;-88
2022/11/07 02:43:38;;;;;;;11.57;1.80;;;;;;;;;;5024365;28;20258;-89
2022/11/07 02:46:06;;;;;;;12.27;1.60;;;;;;;;;;5027735;28;20203;-89
2022/11/07 02:48:41;;;;;;;12.40;1.77;;;;;;;;;;5025053;28;20211;-89
2022/11/07 02:51:08;;;;;;;13.17;1.90;;;;;;;;;;5024429;28;20275;-89
2022/11/07 02:53:36;;;;;;;11.60;1.90;;;;;;;;;;5030816;28;20208;-89
2022/11/07 02:56:03;;;;;;;13.37;1.67;;;;;;;;;;5024392;28;20573;-88
2022/11/07 02:58:30;;;;;;;14.23;1.67;;;;;;;;;;5023975;28;20201;-88
2022/11/07 03:01:01;;;;;;;9.90;1.63;;;;;;;;;;5030928;28;20201;-88
2022/11/07 03:03:29;;;;;;;9.20;2.00;;;;;;;;;;5023603;28;20201;-88
2022/11/07 03:05:56;;;;;;;13.83;1.70;;;;;;;;;;5026014;28;20205;-88
2022/11/07 03:08:24;;;;;;;12.23;1.93;;;;;;;;;;5026661;28;20247;-87
2022/11/07 03:10:51;;;;;;;11.37;1.60;;;;;;;;;;5023579;28;20208;-87
2022/11/07 03:13:18;;;;;;;12.17;1.70;;;;;;;;;;5020580;28;20668;-87
2022/11/07 03:15:46;;;;;;;6.87;1.63;;;;;;;;;;5027274;28;20209;-87
2022/11/07 03:18:17;;;;;;;13.77;1.73;;;;;;;;;;5016242;28;20279;-88
2022/11/07 03:20:44;;;;;;;9.87;1.53;;;;;;;;;;5015678;28;20259;-88
2022/11/07 03:23:12;;;;;;;11.90;1.80;;;;;;;;;;5035325;28;20219;-88
2022/11/07 03:25:42;;;;;;;12.33;1.70;;;;;;;;;;5032784;28;20197;-88
2022/11/07 03:28:11;;;;;;;14.90;1.70;;;;;;;;;;5017612;28;20274;-88
2022/11/07 03:30:38;;;;;;;10.73;2.60;;;;;;;;;;5026484;28;20232;-88
2022/11/07 03:33:06;;;;;;;9.87;1.63;;;;;;;;;;5020970;28;20279;-87
2022/11/07 03:35:35;;;;;;;12.60;1.83;;;;;;;;;;5031100;28;20201;-88
2022/11/07 03:38:02;;;;;;;13.93;1.70;;;;;;;;;;5015786;28;20197;-87
2022/11/07 03:40:29;;;;;;;11.50;1.70;;;;;;;;;;5026701;28;20205;-88
2022/11/07 03:42:57;;;;;;;11.70;1.60;;;;;;;;;;5030941;28;20213;-88
2022/11/07 03:45:24;;;;;;;11.83;2.13;;;;;;;;;;5027313;28;20664;-88
2022/11/07 03:47:51;;;;;;;17.53;2.10;;;;;;;;;;5025839;28;20224;-89
2022/11/07 03:50:20;;;;;;;12.20;1.63;;;;;;;;;;5025763;28;20200;-88
2022/11/07 03:52:49;;;;;;;14.87;2.20;;;;;;;;;;5015661;28;20623;-88
2022/11/07 03:55:17;;;;;;;13.93;1.87;;;;;;;;;;5014057;28;20555;-87
2022/11/07 03:57:44;;;;;;;13.57;2.00;;;;;;;;;;5025894;28;20228;-88
2022/11/07 04:00:12;;;;;;;15.57;2.47;;;;;;;;;;5029050;28;20201;-88
2022/11/07 04:02:40;;;;;;;14.13;2.00;;;;;;;;;;5014297;28;20201;-87
2022/11/07 04:05:07;;;;;;;12.77;2.00;;;;;;;;;;5019954;28;20279;-88
2022/11/07 04:07:35;;;;;;;14.37;2.20;;;;;;;;;;5014282;28;20283;-87
2022/11/07 04:10:04;;;;;;;13.07;2.10;;;;;;;;;;5023154;28;20200;-88
2022/11/07 04:18:01;;;;;;;18.57;2.77;;;;;;;;;;5024487;28;20219;-88
2022/11/07 04:20:28;;;;;;;15.10;2.07;;;;;;;;;;5020121;28;20229;-88
2022/11/07 04:22:56;;;;;;;14.63;2.57;;;;;;;;;;5022634;28;20205;-88
2022/11/07 04:28:05;;;;;;;13.20;2.03;;;;;;;;;;5021911;28;20224;-88
2022/11/07 04:30:33;;;;;;;19.13;2.73;;;;;;;;;;5019264;28;20252;-88
2022/11/07 04:33:02;;;;;;;14.77;2.50;;;;;;;;;;5024045;28;20208;-88
2022/11/07 04:35:31;;;;;;;15.47;2.60;;;;;;;;;;5014376;28;20197;-88
2022/11/07 04:37:58;;;;;;;13.23;1.93;;;;;;;;;;5022120;28;20679;-88
2022/11/07 04:40:27;;;;;;;9.97;1.90;;;;;;;;;;5018179;28;20233;-87
2022/11/07 04:42:55;;;;;;;14.10;2.13;;;;;;;;;;5014050;28;20201;-87
2022/11/07 04:45:22;;;;;;;13.97;2.53;;;;;;;;;;5028815;28;20209;-88
2022/11/07 04:47:50;;;;;;;10.77;2.00;;;;;;;;;;5019904;28;20624;-88
2022/11/07 04:50:18;;;;;;;12.90;2.30;;;;;;;;;;5022925;28;20217;-88
2022/11/07 04:52:46;;;;;;;15.90;2.30;;;;;;;;;;5027271;28;20665;-88
2022/11/07 04:55:18;;;;;;;13.33;2.40;;;;;;;;;;5016872;28;20280;-86
2022/11/07 04:57:47;;;;;;;13.87;1.97;;;;;;;;;;5033736;28;20196;-88
2022/11/07 05:00:14;;;;;;;16.13;2.70;;;;;;;;;;5033753;28;20205;-87
2022/11/07 05:02:42;;;;;;;13.07;2.10;;;;;;;;;;5020840;28;20791;-87
2022/11/07 05:05:09;;;;;;;16.50;2.43;;;;;;;;;;5013716;28;20259;-88
2022/11/07 05:07:37;;;;;;;13.13;2.30;;;;;;;;;;5005164;28;20283;-87
2022/11/07 05:10:04;;;;;;;14.43;2.10;;;;;;;;;;5023931;28;20196;-88
2022/11/07 05:12:32;;;;;;;20.83;2.37;;;;;;;;;;5030677;28;20204;-87
2022/11/07 05:15:00;;;;;;;15.27;2.60;;;;;;;;;;5021773;28;20582;-88
2022/11/07 05:17:28;;;;;;;15.40;2.50;;;;;;;;;;5013728;28;20212;-87
2022/11/07 05:19:55;;;;;;;13.70;2.53;;;;;;;;;;5024632;28;20196;-88
2022/11/07 05:25:08;;;;;;;20.40;2.97;;;;;;;;;;5011340;28;20250;-88
2022/11/07 05:27:35;;;;;;;18.37;3.60;;;;;;;;;;5021413;28;20641;-88
2022/11/07 05:30:05;;;;;;;19.47;2.60;;;;;;;;;;5023781;28;20707;-88
2022/11/07 05:32:36;;;;;;;18.37;2.70;;;;;;;;;;5018956;28;20205;-88
2022/11/07 05:35:04;;;;;;;13.77;2.20;;;;;;;;;;5015612;28;20215;-88
2022/11/07 05:37:31;;;;;;;16.33;2.67;;;;;;;;;;5025951;28;20672;-88
2022/11/07 05:39:58;;;;;;;18.37;2.70;;;;;;;;;;5029317;28;20231;-88
2022/11/07 05:42:26;;;;;;;15.70;2.37;;;;;;;;;;5013499;28;20205;-88
2022/11/07 05:44:54;;;;;;;18.13;2.80;;;;;;;;;;5012622;28;20197;-88
2022/11/07 05:47:23;;;;;;;18.30;4.33;;;;;;;;;;5024410;28;20285;-87
2022/11/07 05:49:50;;;;;;;11.97;3.03;;;;;;;;;;5032441;28;20683;-87
2022/11/07 05:52:18;;;;;;;17.77;2.80;;;;;;;;;;5027386;28;20200;-88
2022/11/07 05:54:45;;;;;;;18.63;3.03;;;;;;;;;;5026895;28;20281;-89
2022/11/07 05:57:12;;;;;;;15.33;2.63;;;;;;;;;;5024014;28;20669;-86
2022/11/07 05:59:40;;;;;;;20.20;3.00;;;;;;;;;;5012513;28;20213;-87
2022/11/07 06:02:07;;;;;;;19.93;3.20;;;;;;;;;;5011784;28;20716;-84
2022/11/07 06:04:35;;;;;;;21.70;3.17;;;;;;;;;;5011562;28;20288;-85
2022/11/07 06:07:03;;;;;;;15.67;3.23;;;;;;;;;;5017972;28;20205;-87
2022/11/07 06:09:30;;;;;;;16.43;3.27;;;;;;;;;;5014883;28;20217;-83
2022/11/07 06:11:57;;;;;;;17.17;2.60;;;;;;;;;;5025782;28;20270;-86
2022/11/07 06:14:24;;;;;;;19.67;2.73;;;;;;;;;;5022772;28;20255;-85
2022/11/07 06:16:52;;;;;;;13.73;2.00;;;;;;;;;;5031536;28;20193;-87
2022/11/07 06:19:19;;;;;;;13.77;2.20;;;;;;;;;;5030999;28;20239;-84
2022/11/07 06:21:47;;;;;;;16.73;2.60;;;;;;;;;;5021529;28;20632;-85
2022/11/07 06:24:15;;;;;;;17.60;2.53;;;;;;;;;;5012248;28;20710;-86
2022/11/07 06:26:42;;;;;;;17.63;2.43;;;;;;;;;;5014818;28;20263;-86
2022/11/07 06:29:09;;;;;;;14.33;2.80;;;;;;;;;;5022245;28;20247;-86
2022/11/07 06:31:37;;;;;;;20.03;2.73;;;;;;;;;;5032200;28;20207;-88
2022/11/07 06:34:04;;;;;;;15.57;2.63;;;;;;;;;;5022288;28;20251;-85
2022/11/07 06:36:31;;;;;;;15.00;2.50;;;;;;;;;;5013795;28;20259;-81
2022/11/07 06:39:00;;;;;;;22.07;3.03;;;;;;;;;;5018229;28;20243;-83
2022/11/07 06:41:27;;;;;;;16.37;3.17;;;;;;;;;;5024469;28;20205;-82
2022/11/07 06:43:55;;;;;;;19.67;2.90;;;;;;;;;;5005933;28;20300;-84
2022/11/07 06:46:24;;;;;;;16.30;2.90;;;;;;;;;;5009030;28;20669;-82
2022/11/07 06:48:51;;;;;;;12.83;2.43;;;;;;;;;;5006411;28;20239;-83
2022/11/07 06:51:18;;;;;;;11.40;2.47;;;;;;;;;;5018558;28;20211;-84
2022/11/07 06:53:46;;;;;;;12.23;2.43;;;;;;;;;;5012445;28;20197;-84
2022/11/07 06:56:15;;;;;;;12.77;3.10;;;;;;;;;;5011585;28;20205;-84
2022/11/07 06:58:43;;;;;;;17.10;3.10;;;;;;;;;;5011551;28;20555;-84
2022/11/07 07:01:13;;;;;;;10.63;2.50;;;;;;;;;;5011569;28;20197;-84
2022/11/07 07:03:41;;;;;;;18.23;2.93;;;;;;;;;;5019761;28;20232;-84
2022/11/07 07:06:10;;;;;;;11.57;2.07;;;;;;;;;;5024019;28;20266;-83
2022/11/07 07:08:38;;;;;;;13.30;2.20;;;;;;;;;;5006933;28;20271;-84
2022/11/07 07:11:06;;;;;;;14.23;2.60;;;;;;;;;;5032067;28;20204;-84
2022/11/07 07:13:34;;;;;;;12.70;2.50;;;;;;;;;;5031484;28;20227;-84
2022/11/07 07:16:02;;;;;;;11.93;3.10;;;;;;;;;;5032355;28;20232;-84
2022/11/07 07:18:29;;;;;;;10.33;2.37;;;;;;;;;;5031678;28;20245;-84
2022/11/07 07:21:04;;;;;;;14.70;2.53;;;;;;;;;;5029566;28;20282;-84
2022/11/07 07:23:33;;;;;;;15.30;2.37;;;;;;;;;;5031435;28;20283;-84
2022/11/07 07:26:00;;;;;;;12.80;2.33;;;;;;;;;;5031978;28;20243;-84
2022/11/07 07:28:27;;;;;;;12.70;2.30;;;;;;;;;;5031278;28;20248;-84
2022/11/07 07:31:07;;;;;;;10.60;2.07;;;;;;;;;;5034198;28;20673;-85
2022/11/07 07:33:35;;;;;;;14.50;2.00;;;;;;;;;;5022938;28;20735;-84
2022/11/07 07:36:02;;;;;;;11.80;2.33;;;;;;;;;;5023038;28;20224;-84
2022/11/07 07:38:29;;;;;;;12.77;2.33;;;;;;;;;;5034971;28;20737;-84
2022/11/07 07:40:57;;;;;;;10.67;2.50;;;;;;;;;;5035214;28;20204;-84
2022/11/07 07:43:24;;;;;;;11.13;2.00;;;;;;;;;;5034760;28;20658;-84
2022/11/07 07:45:52;;;;;;;17.03;2.40;;;;;;;;;;5027738;28;20213;-84
2022/11/07 07:48:20;;;;;;;12.97;2.07;;;;;;;;;;5025533;28;20274;-84
2022/11/07 07:50:48;;;;;;;13.63;2.57;;;;;;;;;;5034840;28;20552;-84
2022/11/07 07:53:15;;;;;;;10.93;1.90;;;;;;;;;;5034880;28;20728;-84
2022/11/07 07:55:43;;;;;;;10.07;1.90;;;;;;;;;;5032967;28;20262;-84
2022/11/07 07:58:10;;;;;;;8.97;1.93;;;;;;;;;;5015076;28;20197;-84
2022/11/07 08:00:38;;;;;;;6.17;1.50;;;;;;;;;;5020826;28;20270;-84
2022/11/07 08:03:05;;;;;;;10.93;2.20;;;;;;;;;;5021820;28;20220;-84
2022/11/07 08:05:35;;;;;;;5.80;1.63;;;;;;;;;;5030943;28;20204;-84
2022/11/07 08:08:02;;;;;;;10.30;1.73;;;;;;;;;;5034713;28;20234;-84
2022/11/07 08:10:29;;;;;;;8.23;1.80;;;;;;;;;;5034541;28;20227;-84
2022/11/07 08:12:56;;;;;;;10.73;1.87;;;;;;;;;;5034623;28;20200;-84
2022/11/07 08:15:24;;;;;;;8.80;1.50;;;;;;;;;;5034896;28;20281;-84
2022/11/07 08:17:51;;;;;;;8.50;1.80;;;;;;;;;;5034387;28;20236;-84
2022/11/07 08:20:19;;;;;;;7.00;1.63;;;;;;;;;;5033346;28;20208;-84
2022/11/07 08:22:48;;;;;;;6.03;1.63;;;;;;;;;;5034210;28;20204;-84
2022/11/07 08:25:15;;;;;;;7.87;1.57;;;;;;;;;;5023295;28;20295;-84
2022/11/07 08:27:42;;;;;;;7.70;1.60;;;;;;;;;;5014632;28;20208;-83
2022/11/07 08:30:10;;;;;;;5.07;1.50;;;;;;;;;;5013838;28;20651;-84
2022/11/07 08:32:37;;;;;;;7.83;1.80;;;;;;;;;;5014030;28;20755;-84
2022/11/07 08:35:05;;;;;;;10.70;2.00;;;;;;;;;;5014181;28;20282;-85
2022/11/07 08:37:32;;;;;;;6.17;1.80;;;;;;;;;;5014482;28;20610;-84
2022/11/07 08:40:01;;;;;;;8.73;1.77;;;;;;;;;;5014111;28;20236;-84
2022/11/07 08:42:28;;;;;;;8.87;1.60;;;;;;;;;;5012976;28;20233;-84
2022/11/07 08:44:55;;;;;;;9.80;1.70;;;;;;;;;;5014350;28;20205;-84
2022/11/07 08:47:22;;;;;;;9.73;1.63;;;;;;;;;;5013642;28;20213;-84
2022/11/07 08:49:49;;;;;;;9.97;1.90;;;;;;;;;;5014316;28;20253;-84
2022/11/07 08:52:17;;;;;;;7.70;1.73;;;;;;;;;;5033517;28;20676;-84
2022/11/07 08:54:44;;;;;;;10.73;1.53;;;;;;;;;;5029734;28;20255;-84
2022/11/07 08:57:13;;;;;;;12.10;2.00;;;;;;;;;;5013880;28;20209;-84
2022/11/07 08:59:40;;;;;;;5.60;1.47;;;;;;;;;;5014212;28;20228;-84
2022/11/07 09:02:07;;;;;;;7.67;1.57;;;;;;;;;;5013777;28;20613;-84
2022/11/07 09:04:34;;;;;;;6.73;1.67;;;;;;;;;;5014209;28;20209;-84
2022/11/07 09:07:02;;;;;;;9.20;2.13;;;;;;;;;;5013524;28;20229;-84
2022/11/07 09:09:29;;;;;;;5.10;1.40;;;;;;;;;;5022766;28;20228;-85
2022/11/07 09:11:56;;;;;;;7.47;1.67;;;;;;;;;;5033247;28;20323;-84
2022/11/07 09:14:26;;;;;;;13.45;2.28;;;;;;;;;;5033400;28;20212;-84
2022/11/07 09:16:53;;;;;;;9.88;2.08;;;;;;;;;;5021788;28;20672;-85
2022/11/07 09:19:20;;;;;;;9.55;2.00;;;;;;;;;;5032926;28;20242;-85
2022/11/07 09:21:48;;;;;;;8.23;2.08;;;;;;;;;;5033535;28;20286;-84
2022/11/07 09:24:15;;;;;;;11.35;2.22;;;;;;;;;;5033080;28;20205;-85
2022/11/07 09:26:42;;;;;;;8.25;2.30;;;;;;;;;;5027598;28;20250;-85
2022/11/07 09:29:09;;;;;;;11.27;2.15;;;;;;;;;;5032696;28;20266;-84
2022/11/07 09:31:38;;;;;;;9.25;2.25;;;;;;;;;;5014551;28;20232;-85
2022/11/07 09:34:06;;;;;;;16.33;2.53;;;;;;;;;;5021693;28;20192;-85
2022/11/07 09:36:33;;;;;;;14.75;2.75;;;;;;;;;;5032518;28;20287;-85
2022/11/07 09:39:00;;;;;;;9.63;2.45;;;;;;;;;;5016603;28;20661;-85
2022/11/07 09:41:33;;;;;;;10.38;2.33;;;;;;;;;;5017672;28;20684;-84
2022/11/07 09:44:11;;;;;;;10.25;2.30;;;;;;;;;;5018531;28;20205;-85
2022/11/07 09:46:46;;;;;;;14.40;3.08;;;;;;;;;;5022038;28;20205;-85
2022/11/07 09:49:16;;;;;;;16.63;3.13;;;;;;;;;;5013050;28;20220;-84
2022/11/07 09:51:44;;;;;;;13.82;3.13;;;;;;;;;;5012832;28;20197;-85
2022/11/07 09:54:14;;;;;;;12.18;2.42;;;;;;;;;;5015709;28;20192;-85
2022/11/07 09:56:42;;;;;;;12.95;3.25;;;;;;;;;;5032662;28;20298;-85
2022/11/07 09:59:15;;;;;;;11.93;2.92;;;;;;;;;;5032417;28;20212;-85
2022/11/07 10:01:44;;;;;;;11.90;2.45;;;;;;;;;;5026580;28;20260;-85
2022/11/07 10:04:15;;;;;;;9.93;2.38;;;;;;;;;;5013011;28;20205;-86
2022/11/07 10:06:46;;;;;;;11.60;2.95;;;;;;;;;;5012261;28;20262;-86
2022/11/07 10:09:16;;;;;;;14.38;2.70;;;;;;;;;;5013118;28;20716;-86
2022/11/07 10:11:49;;;;;;;14.23;2.78;;;;;;;;;;5017917;28;20231;-85
2022/11/07 10:14:20;;;;;;;14.45;2.83;;;;;;;;;;5032159;28;20680;-85
2022/11/07 10:16:57;;;;;;;14.88;2.95;;;;;;;;;;5022781;28;20208;-86
2022/11/07 10:19:36;;;;;;;14.05;2.90;;;;;;;;;;5012664;28;20739;-85
2022/11/07 10:22:08;;;;;;;13.32;3.00;;;;;;;;;;5012408;28;20209;-86
2022/11/07 10:24:45;;;;;;;14.68;3.00;;;;;;;;;;5017721;28;20200;-85
2022/11/07 10:27:13;;;;;;;13.85;3.25;;;;;;;;;;5016788;28;20204;-86
2022/11/07 10:29:43;;;;;;;14.20;3.13;;;;;;;;;;5011774;28;20287;-84
2022/11/07 10:32:17;;;;;;;14.80;2.85;;;;;;;;;;5025024;28;20204;-85
2022/11/07 10:34:47;;;;;;;12.73;3.03;;;;;;;;;;5025111;28;20200;-85
2022/11/07 10:37:14;;;;;;;16.58;2.97;;;;;;;;;;5019398;28;20235;-86
2022/11/07 10:39:42;;;;;;;12.90;2.63;;;;;;;;;;5011370;28;20688;-84
2022/11/07 10:42:10;;;;;;;17.92;3.47;;;;;;;;;;5011974;28;20205;-86
2022/11/07 10:44:39;;;;;;;16.67;3.40;;;;;;;;;;5018525;28;20196;-84
2022/11/07 10:47:16;;;;;;;15.55;3.50;;;;;;;;;;5018787;28;20241;-85
2022/11/07 10:49:53;;;;;;;19.15;3.63;;;;;;;;;;5011434;28;20279;-85
2022/11/07 10:52:20;;;;;;;15.43;3.38;;;;;;;;;;5013218;28;20336;-85
2022/11/07 10:54:48;;;;;;;17.70;3.88;;;;;;;;;;5016239;28;20222;-84
2022/11/07 10:57:16;;;;;;;14.15;2.75;;;;;;;;;;5029981;28;20196;-85
2022/11/07 10:59:46;;;;;;;19.35;3.97;;;;;;;;;;5012702;28;20236;-85
2022/11/07 11:02:20;;;;;;;22.13;3.95;;;;;;;;;;5018017;28;20197;-85
2022/11/07 11:04:48;;;;;;;17.95;3.47;;;;;;;;;;5025798;28;20200;-85
2022/11/07 11:07:16;;;;;;;21.45;3.63;;;;;;;;;;5029519;28;20204;-85
2022/11/07 11:09:50;;;;;;;16.23;3.58;;;;;;;;;;5030569;28;20260;-85
2022/11/07 11:12:20;;;;;;;18.63;4.15;;;;;;;;;;5035664;28;20208;-86
2022/11/07 11:14:47;;;;;;;19.88;3.33;;;;;;;;;;5020138;28;20263;-85
2022/11/07 11:17:25;;;;;;;16.75;3.47;;;;;;;;;;5025797;28;20196;-85
2022/11/07 11:19:53;;;;;;;13.80;2.70;;;;;;;;;;5035322;28;20207;-85
2022/11/07 11:22:22;;;;;;;18.75;3.67;;;;;;;;;;5035591;28;20200;-85
2022/11/07 11:24:59;;;;;;;19.33;3.75;;;;;;;;;;5035505;28;20207;-86
2022/11/07 11:27:30;;;;;;;20.13;3.58;;;;;;;;;;5035025;28;20228;-85
2022/11/07 11:30:00;;;;;;;14.95;3.00;;;;;;;;;;5033970;28;20659;-84
2022/11/07 11:32:31;;;;;;;14.95;3.05;;;;;;;;;;5023027;28;20255;-85
2022/11/07 11:35:14;;;;;;;15.65;3.30;;;;;;;;;;5015264;28;20200;-85
2022/11/07 11:37:43;;;;;;;21.65;3.80;;;;;;;;;;5026098;28;20235;-85
2022/11/07 11:40:14;;;;;;;16.65;3.08;;;;;;;;;;5035289;28;20200;-85
2022/11/07 11:42:46;;;;;;;15.38;3.53;;;;;;;;;;5035713;28;20563;-86
2022/11/07 11:45:16;;;;;;;16.88;3.22;;;;;;;;;;5035127;28;20204;-85
2022/11/07 11:47:46;;;;;;;14.93;3.22;;;;;;;;;;5022596;28;20681;-85
2022/11/07 11:50:15;;;;;;;17.45;3.40;;;;;;;;;;5014984;28;20263;-85
2022/11/07 11:52:42;;;;;;;20.92;3.35;;;;;;;;;;5019214;28;20653;-85
2022/11/07 11:55:13;;;;;;;16.75;3.67;;;;;;;;;;5015316;28;20283;-85
2022/11/07 11:57:46;;;;;;;17.52;3.58;;;;;;;;;;5015012;28;20591;-85
2022/11/07 12:00:15;;;;;;;17.65;3.30;;;;;;;;;;5014553;28;20232;-85
2022/11/07 12:03:04;;;;;;;19.23;2.83;;;;;;;;;;5015266;28;20271;-86
2022/11/07 12:05:50;;;;;;;14.63;2.88;;;;;;;;;;5031963;28;20232;-85
2022/11/07 12:08:22;;;;;;;22.42;3.20;;;;;;;;;;5034813;28;20270;-85
2022/11/07 12:10:53;;;;;;;14.75;3.75;;;;;;;;;;5022731;28;20440;-85
2022/11/07 12:13:26;;;;;;;20.70;3.53;;;;;;;;;;5031367;28;20274;-85
2022/11/07 12:16:04;;;;;;;15.93;3.85;;;;;;;;;;5030614;28;20287;-85
2022/11/07 12:18:36;;;;;;;19.85;3.50;;;;;;;;;;5016236;28;20621;-85
2022/11/07 12:21:10;;;;;;;15.65;3.50;;;;;;;;;;5014670;28;20240;-85
2022/11/07 12:23:47;;;;;;;12.18;3.05;;;;;;;;;;5015892;28;20209;-85
2022/11/07 12:26:20;;;;;;;16.63;3.00;;;;;;;;;;5027049;28;20197;-85
2022/11/07 12:28:51;;;;;;;17.42;3.65;;;;;;;;;;5028259;28;20224;-85
2022/11/07 12:31:25;;;;;;;13.45;2.72;;;;;;;;;;5033689;28;20224;-85
2022/11/07 12:33:59;;;;;;;14.55;2.70;;;;;;;;;;5033974;28;20251;-85
2022/11/07 12:36:36;;;;;;;14.88;3.05;;;;;;;;;;5033190;28;20200;-85
2022/11/07 12:39:16;;;;;;;14.35;2.53;;;;;;;;;;5016918;28;20200;-85
2022/11/07 12:41:47;;;;;;;15.45;3.15;;;;;;;;;;5033843;28;20197;-85
2022/11/07 12:44:25;;;;;;;10.57;2.90;;;;;;;;;;5033966;28;20319;-85
2022/11/07 12:46:54;;;;;;;15.93;3.35;;;;;;;;;;5028148;28;20263;-85
2022/11/07 12:49:48;;;;;;;13.82;2.38;;;;;;;;;;5031755;28;20633;-85
2022/11/07 12:52:26;;;;;;;12.20;3.00;;;;;;;;;;4986499;28;20633;-85
2022/11/07 12:54:56;;;;;;;16.35;3.28;;;;;;;;;;5032333;28;20250;-85
2022/11/07 12:57:26;;;;;;;13.13;3.05;;;;;;;;;;5033966;28;20232;-85
2022/11/07 12:59:55;;;;;;;13.68;2.78;;;;;;;;;;5033065;28;20254;-85
2022/11/07 13:02:28;;;;;;;15.77;3.47;;;;;;;;;;5033647;28;20200;-85
2022/11/07 13:04:59;;;;;;;15.68;2.88;;;;;;;;;;5033421;28;20208;-85
2022/11/07 13:07:29;;;;;;;15.52;3.25;;;;;;;;;;5030184;28;20205;-85
2022/11/07 13:09:58;;;;;;;14.85;2.97;;;;;;;;;;5033268;28;20259;-85
2022/11/07 13:12:29;;;;;;;16.50;3.05;;;;;;;;;;5033153;28;20522;-85
2022/11/07 13:14:57;;;;;;;11.90;2.60;;;;;;;;;;5013955;28;20194;-85
2022/11/07 13:17:26;;;;;;;17.85;3.03;;;;;;;;;;5032183;28;20236;-85
2022/11/07 13:20:00;;;;;;;16.60;3.22;;;;;;;;;;5031997;28;20200;-84
2022/11/07 13:22:36;;;;;;;16.25;3.33;;;;;;;;;;5016163;28;20642;-85
2022/11/07 13:25:23;;;;;;;13.77;3.58;;;;;;;;;;5013126;28;20680;-85
2022/11/07 13:28:01;;;;;;;14.30;2.72;;;;;;;;;;5013107;28;20205;-85
2022/11/07 13:30:34;;;;;;;15.85;2.78;;;;;;;;;;5012851;28;20291;-85
2022/11/07 13:33:01;;;;;;;15.20;2.95;;;;;;;;;;5012895;28;20205;-84
2022/11/07 13:35:30;;;;;;;14.70;2.90;;;;;;;;;;5013408;28;20292;-85
2022/11/07 13:37:59;;;;;;;12.25;2.58;;;;;;;;;;5006634;28;20201;-85
2022/11/07 13:40:27;;;;;;;18.55;3.55;;;;;;;;;;5025529;28;20270;-85
2022/11/07 13:42:57;;;;;;;12.38;2.65;;;;;;;;;;5032792;28;20204;-84
2022/11/07 13:45:27;;;;;;;11.32;2.80;;;;;;;;;;5033007;28;20577;-85
2022/11/07 13:47:56;;;;;;;14.27;2.88;;;;;;;;;;5019508;28;20213;-85
2022/11/07 13:50:25;;;;;;;13.43;3.03;;;;;;;;;;5017523;28;20643;-85
2022/11/07 13:52:56;;;;;;;10.73;2.70;;;;;;;;;;5014169;28;20205;-85
2022/11/07 13:55:27;;;;;;;12.80;2.70;;;;;;;;;;5026161;28;20204;-85
2022/11/07 13:57:56;;;;;;;11.68;2.97;;;;;;;;;;5032643;28;20200;-85
2022/11/07 14:00:23;;;;;;;11.68;2.80;;;;;;;;;;5032416;28;20617;-84
2022/11/07 14:02:52;;;;;;;12.07;3.00;;;;;;;;;;5032754;28;20210;-84
2022/11/07 14:05:21;;;;;;;14.43;2.60;;;;;;;;;;5014615;28;20209;-84
2022/11/07 14:07:52;;;;;;;10.02;2.67;;;;;;;;;;5029252;28;20228;-84
2022/11/07 14:10:25;;;;;;;15.63;2.67;;;;;;;;;;5032206;28;20242;-84
2022/11/07 14:12:54;;;;;;;17.63;3.00;;;;;;;;;;5032464;28;20231;-85
2022/11/07 14:15:21;;;;;;;13.40;2.97;;;;;;;;;;5032465;28;20625;-85
2022/11/07 14:17:48;;;;;;;16.23;2.80;;;;;;;;;;5026633;28;20232;-85
2022/11/07 14:20:17;;;;;;;11.65;3.00;;;;;;;;;;5012735;28;20614;-85
2022/11/07 14:22:51;;;;;;;12.55;2.60;;;;;;;;;;5026502;28;20251;-85
2022/11/07 14:25:23;;;;;;;11.95;2.72;;;;;;;;;;5032324;28;20227;-85
2022/11/07 14:27:52;;;;;;;13.18;2.75;;;;;;;;;;5032369;28;20266;-85
2022/11/07 14:30:20;;;;;;;16.05;3.00;;;;;;;;;;5021233;28;20240;-85
2022/11/07 14:32:48;;;;;;;12.25;2.45;;;;;;;;;;5012777;28;20255;-85
2022/11/07 14:35:18;;;;;;;12.73;2.60;;;;;;;;;;5012257;28;20555;-86
2022/11/07 14:37:45;;;;;;;12.32;2.65;;;;;;;;;;5026162;28;20219;-85
2022/11/07 14:40:12;;;;;;;10.80;2.40;;;;;;;;;;5034378;28;20196;-85
2022/11/07 14:42:42;;;;;;;11.70;2.28;;;;;;;;;;5029313;28;20656;-85
2022/11/07 14:45:14;;;;;;;10.75;2.88;;;;;;;;;;5024923;28;20224;-86
2022/11/07 14:47:41;;;;;;;13.73;2.95;;;;;;;;;;5015603;28;20271;-85
2022/11/07 14:50:09;;;;;;;8.25;2.22;;;;;;;;;;5016266;28;20767;-86
2022/11/07 14:52:39;;;;;;;12.40;2.22;;;;;;;;;;5016537;28;20614;-85
2022/11/07 14:55:08;;;;;;;10.88;2.92;;;;;;;;;;5016499;28;20234;-85
2022/11/07 14:57:36;;;;;;;9.48;2.33;;;;;;;;;;5032296;28;20283;-85